CheckWX is a tool to help pilots better visualize weather data.  It is not intended as a substitute for an official pre-flight weather briefing.

22:04:46 UTC

M19 METAR
Newport Regional Airport
Newport, Arkansas, USA
Current

9 mins ago

KM19 212156Z AUTO 01008KT 10SM -RA OVC080 05/03 A3022 RMK AO2 SLP240 P0000 T00500033
Observed
Feb-21 @ 21:56 UTC
Wind
  • 010° at 8 KTS
Visibility
10 SM
Flight Rules
VFR
Conditions
Light Rain
Cloud Levels
  • Overcast at 8,000' AGL
Temperature
C / 41°F
Dewpoint
C / 37°F
Humidity
87%
Altimeter
30.22" Hg
Pressure
1024 hPa
Current Rain
0.01"
Previous

1 hour ago

KM19 212056Z AUTO 03012KT 10SM -RA OVC090 05/03 A3014 RMK AO2 SLP215 P0000 60001 T00500033 58011
Observed
Feb-21 @ 20:56 UTC
Wind
  • 030° at 12 KTS
Visibility
10 SM
Flight Rules
VFR
Conditions
Light Rain
Cloud Levels
  • Overcast at 9,000' AGL
Temperature
C / 41°F
Dewpoint
C / 37°F
Humidity
87%
Altimeter
30.14" Hg
Pressure
1021.5 hPa
Current Rain
0.01"
Previous

2 hours ago

KM19 211956Z AUTO 02009KT 10SM -RA OVC085 06/03 A3017 RMK AO2 SLP222 P0000 T00610028
Observed
Feb-21 @ 19:56 UTC
Wind
  • 020° at 9 KTS
Visibility
10 SM
Flight Rules
VFR
Conditions
Light Rain
Cloud Levels
  • Overcast at 8,500' AGL
Temperature
C / 43°F
Dewpoint
C / 37°F
Humidity
81%
Altimeter
30.17" Hg
Pressure
1022.2 hPa
Current Rain
0.01"